createdAt,value
2023-10-31T00:00:06.371Z,9.6
2023-10-31T00:02:06.323Z,9.8
2023-10-31T00:04:05.397Z,9.8
2023-10-31T00:06:05.052Z,9.9
2023-10-31T00:08:05.212Z,9.6
2023-10-31T00:10:04.913Z,9.6
2023-10-31T00:12:04.589Z,9.5
2023-10-31T00:14:04.343Z,9.5
2023-10-31T00:16:03.718Z,9.6
2023-10-31T00:18:03.469Z,9.6
2023-10-31T00:20:03.500Z,9.8
2023-10-31T00:22:02.670Z,9.8
2023-10-31T00:24:03.221Z,9.8
2023-10-31T00:26:02.162Z,9.8
2023-10-31T00:28:01.745Z,9.5
2023-10-31T00:30:01.747Z,9.4
2023-10-31T00:32:01.235Z,9.5
2023-10-31T00:34:01.488Z,9.5
2023-10-31T00:36:00.803Z,9.6
2023-10-31T00:38:00.434Z,9.8
2023-10-31T00:40:00.105Z,9.5
2023-10-31T00:41:59.933Z,9.5
2023-10-31T00:43:59.833Z,9.6
2023-10-31T00:45:59.447Z,9.6
2023-10-31T00:47:58.994Z,9.7
2023-10-31T00:49:58.897Z,9.7
2023-10-31T00:51:58.433Z,9.7
2023-10-31T00:53:58.168Z,9.5
2023-10-31T00:57:57.488Z,9.7
2023-10-31T00:59:57.215Z,9.6
2023-10-31T01:01:57.192Z,9.7
2023-10-31T01:03:56.708Z,9.8
2023-10-31T01:05:56.460Z,9.8
2023-10-31T01:07:56.186Z,9.8
2023-10-31T01:09:55.874Z,9.7
2023-10-31T01:11:55.569Z,9.8
2023-10-31T01:13:55.622Z,9.7
2023-10-31T01:15:55.075Z,9.8
2023-10-31T01:17:54.957Z,9.8
2023-10-31T01:19:54.499Z,9.8
2023-10-31T01:21:54.459Z,9.8
2023-10-31T01:23:53.979Z,9.9
2023-10-31T01:25:53.720Z,9.8
2023-10-31T01:27:53.376Z,9.8
2023-10-31T01:31:59.531Z,9.8
2023-10-31T01:35:52.463Z,9.9
2023-10-31T01:39:51.796Z,9.9
2023-10-31T01:41:54.636Z,9.9
2023-10-31T01:43:51.223Z,9.8
2023-10-31T01:45:50.900Z,9.9
2023-10-31T01:47:50.801Z,10.0
2023-10-31T01:49:51.269Z,9.9
2023-10-31T01:51:51.093Z,9.8
2023-10-31T01:53:49.910Z,9.8
2023-10-31T01:55:51.527Z,9.9
2023-10-31T01:57:49.743Z,9.8
2023-10-31T01:59:49.317Z,9.8
2023-10-31T02:01:49.644Z,9.7
2023-10-31T02:03:48.584Z,9.8
2023-10-31T02:05:48.516Z,9.7
2023-10-31T02:07:47.777Z,9.8
2023-10-31T02:09:47.495Z,9.7
2023-10-31T02:11:47.156Z,9.6
2023-10-31T02:15:46.821Z,9.5
2023-10-31T02:17:46.321Z,9.5
2023-10-31T02:19:46.006Z,9.4
2023-10-31T02:23:56.361Z,9.5
2023-10-31T02:25:55.741Z,9.4
2023-10-31T02:27:44.983Z,9.4
2023-10-31T02:29:45.033Z,9.5
2023-10-31T02:31:45.345Z,9.5
2023-10-31T02:33:43.918Z,9.6
2023-10-31T02:35:43.752Z,9.6
2023-10-31T02:37:43.560Z,9.6
2023-10-31T02:39:43.117Z,9.6
2023-10-31T02:41:42.785Z,9.6
2023-10-31T02:43:42.577Z,9.6
2023-10-31T02:47:41.808Z,9.2
2023-10-31T02:49:41.423Z,9.3
2023-10-31T02:51:41.101Z,9.2
2023-10-31T02:53:40.805Z,9.3
2023-10-31T02:55:40.582Z,9.3
2023-10-31T02:57:40.205Z,9.2
2023-10-31T02:59:39.939Z,9.3
2023-10-31T03:03:39.339Z,9.3
2023-10-31T03:05:38.977Z,9.3
2023-10-31T03:07:38.490Z,9.3
2023-10-31T03:09:38.228Z,9.2
2023-10-31T03:11:37.982Z,9.3
2023-10-31T03:13:37.624Z,9.2
2023-10-31T03:17:37.358Z,9.2
2023-10-31T03:19:36.538Z,9.2
2023-10-31T03:21:36.374Z,9.0
2023-10-31T03:23:35.985Z,9.3
2023-10-31T03:25:35.641Z,9.3
2023-10-31T03:27:35.993Z,9.3
2023-10-31T03:29:35.008Z,9.3
2023-10-31T03:31:34.749Z,9.2
2023-10-31T03:33:34.456Z,9.1
2023-10-31T03:35:33.987Z,9.1
2023-10-31T03:39:33.433Z,9.2
2023-10-31T03:41:33.184Z,9.2
2023-10-31T03:43:32.712Z,9.2
2023-10-31T03:45:32.741Z,9.1
2023-10-31T03:51:31.503Z,9.0
2023-10-31T03:53:31.170Z,9.0
2023-10-31T03:59:30.177Z,8.9
2023-10-31T04:01:29.784Z,8.9
2023-10-31T04:03:29.585Z,8.8
2023-10-31T04:05:29.266Z,8.8
2023-10-31T04:07:28.835Z,8.9
2023-10-31T04:09:28.513Z,8.8
2023-10-31T04:11:28.191Z,8.6
2023-10-31T04:13:27.903Z,8.6
2023-10-31T04:15:27.550Z,8.5
2023-10-31T04:17:27.550Z,8.5
2023-10-31T04:19:27.038Z,8.5
2023-10-31T04:21:26.488Z,8.5
2023-10-31T04:23:26.171Z,8.5
2023-10-31T04:25:27.074Z,8.5
2023-10-31T04:29:25.180Z,8.4
2023-10-31T04:31:34.697Z,8.3
2023-10-31T04:33:24.455Z,8.3
2023-10-31T04:35:24.327Z,8.2
2023-10-31T04:37:24.631Z,8.2
2023-10-31T04:41:23.265Z,8.2
2023-10-31T04:43:22.867Z,8.2
2023-10-31T04:45:22.513Z,8.1
2023-10-31T04:47:22.190Z,8.1
2023-10-31T04:49:21.963Z,8.1
2023-10-31T04:51:21.525Z,8.0
2023-10-31T04:53:21.028Z,8.0
2023-10-31T04:55:20.708Z,7.9
2023-10-31T04:57:20.538Z,8.0
2023-10-31T04:59:20.178Z,8.0
2023-10-31T05:01:19.700Z,8.0
2023-10-31T05:03:19.413Z,8.0
2023-10-31T05:05:19.695Z,7.9
2023-10-31T05:09:20.107Z,8.0
2023-10-31T05:15:17.459Z,7.9
2023-10-31T05:19:16.601Z,7.9
2023-10-31T05:21:19.402Z,7.8
2023-10-31T05:23:15.900Z,7.8
2023-10-31T05:25:15.683Z,7.8
2023-10-31T05:27:15.291Z,8.0
2023-10-31T05:29:14.947Z,8.0
2023-10-31T05:31:15.355Z,8.1
2023-10-31T05:33:15.596Z,8.2
2023-10-31T05:35:14.373Z,8.2
2023-10-31T05:41:13.016Z,8.1
2023-10-31T05:43:12.545Z,8.2
2023-10-31T05:45:12.300Z,8.2
2023-10-31T05:47:11.825Z,8.3
2023-10-31T05:49:11.493Z,8.3
2023-10-31T05:51:12.985Z,8.3
2023-10-31T05:53:11.525Z,8.4
2023-10-31T05:55:10.592Z,8.4
2023-10-31T05:57:10.178Z,8.4
2023-10-31T05:59:09.767Z,8.4
2023-10-31T06:01:09.480Z,8.4
2023-10-31T06:03:09.337Z,8.4
2023-10-31T06:05:09.149Z,8.4
2023-10-31T06:07:08.675Z,8.4
2023-10-31T06:09:09.018Z,8.4
2023-10-31T06:11:07.864Z,8.4
2023-10-31T06:15:08.357Z,8.5
2023-10-31T06:17:06.986Z,8.5
2023-10-31T06:21:08.890Z,8.5
2023-10-31T06:23:05.896Z,8.4
2023-10-31T06:27:05.318Z,8.5
2023-10-31T06:29:27.267Z,8.6
2023-10-31T06:33:04.325Z,8.6
2023-10-31T06:35:04.407Z,8.5
2023-10-31T06:37:03.867Z,8.5
2023-10-31T06:39:03.409Z,8.5
2023-10-31T06:41:03.654Z,8.4
2023-10-31T06:43:02.602Z,8.4
2023-10-31T06:45:02.525Z,8.4
2023-10-31T06:47:01.953Z,8.4
2023-10-31T06:49:01.867Z,8.4
2023-10-31T06:51:01.469Z,8.3
2023-10-31T06:53:01.214Z,8.3
2023-10-31T06:55:00.782Z,8.3
2023-10-31T06:57:01.510Z,8.2
2023-10-31T06:59:00.129Z,8.3
2023-10-31T07:00:59.758Z,8.2
2023-10-31T07:03:04.903Z,8.2
2023-10-31T07:04:58.975Z,8.2
2023-10-31T07:06:58.589Z,8.3
2023-10-31T07:09:00.465Z,8.3
2023-10-31T07:11:00.119Z,8.3
2023-10-31T07:12:58.731Z,8.2
2023-10-31T07:14:58.417Z,8.3
2023-10-31T07:16:57.189Z,8.2
2023-10-31T07:18:56.561Z,8.4
2023-10-31T07:20:56.363Z,8.4
2023-10-31T07:22:55.941Z,8.4
2023-10-31T07:24:56.693Z,8.4
2023-10-31T07:26:55.391Z,8.4
2023-10-31T07:28:55.071Z,8.5
2023-10-31T07:30:54.543Z,8.4
2023-10-31T07:32:54.509Z,8.4
2023-10-31T07:34:54.095Z,8.4
2023-10-31T07:36:53.586Z,8.5
2023-10-31T07:38:53.203Z,8.5
2023-10-31T07:40:52.950Z,8.5
2023-10-31T07:42:52.539Z,8.5
2023-10-31T07:44:52.293Z,8.6
2023-10-31T07:46:51.935Z,8.6
2023-10-31T07:48:51.630Z,8.8
2023-10-31T07:50:51.250Z,8.8
2023-10-31T07:52:51.086Z,8.9
2023-10-31T07:54:50.645Z,9.0
2023-10-31T07:56:50.470Z,8.9
2023-10-31T07:58:49.985Z,9.0
2023-10-31T08:00:49.655Z,9.1
2023-10-31T08:02:49.429Z,9.2
2023-10-31T08:04:49.121Z,9.2
2023-10-31T08:10:48.315Z,9.4
2023-10-31T08:12:47.622Z,9.4
2023-10-31T08:14:47.334Z,9.4
2023-10-31T08:16:47.083Z,9.5
2023-10-31T08:18:47.249Z,9.7
2023-10-31T08:20:49.120Z,9.6
2023-10-31T08:22:46.079Z,9.7
2023-10-31T08:24:45.784Z,9.8
2023-10-31T08:26:45.436Z,9.8
2023-10-31T08:28:45.081Z,10.0
2023-10-31T08:30:44.970Z,10.0
2023-10-31T08:32:44.674Z,9.8
2023-10-31T08:34:44.234Z,9.8
2023-10-31T08:38:43.587Z,10.0
2023-10-31T08:40:43.506Z,10.0
2023-10-31T08:42:44.668Z,10.1
2023-10-31T08:44:42.801Z,10.2
2023-10-31T08:48:42.156Z,10.3
2023-10-31T08:50:41.925Z,10.5
2023-10-31T08:52:41.490Z,10.5
2023-10-31T08:54:41.175Z,10.2
2023-10-31T08:56:40.910Z,10.2
2023-10-31T08:58:40.980Z,10.2
2023-10-31T09:00:41.052Z,10.3
2023-10-31T09:02:40.046Z,10.1
2023-10-31T09:04:39.705Z,10.1
2023-10-31T09:08:39.151Z,10.3
2023-10-31T09:10:38.866Z,10.3
2023-10-31T09:12:38.877Z,10.5
2023-10-31T09:14:38.820Z,10.6
2023-10-31T09:16:38.095Z,10.6
2023-10-31T09:18:37.681Z,10.7
2023-10-31T09:20:37.504Z,10.9
2023-10-31T09:24:37.173Z,10.7
2023-10-31T09:26:37.579Z,10.8
2023-10-31T09:28:36.639Z,10.8
2023-10-31T09:30:35.954Z,10.9
2023-10-31T09:34:35.372Z,11.3
2023-10-31T09:36:35.328Z,11.3
2023-10-31T09:38:34.703Z,11.2
2023-10-31T09:40:36.816Z,11.3
2023-10-31T09:42:34.619Z,11.1
2023-10-31T09:44:34.060Z,11.1
2023-10-31T09:46:35.113Z,11.2
2023-10-31T09:48:34.180Z,11.0
2023-10-31T09:50:33.599Z,11.1
2023-10-31T09:52:33.005Z,11.1
2023-10-31T09:54:34.067Z,11.2
2023-10-31T09:56:34.670Z,11.2
2023-10-31T10:00:31.872Z,11.3
2023-10-31T10:02:31.676Z,11.1
2023-10-31T10:04:31.821Z,11.2
2023-10-31T10:06:32.132Z,11.3
2023-10-31T10:14:31.542Z,11.5
2023-10-31T10:16:31.144Z,11.6
2023-10-31T10:20:29.028Z,11.3
2023-10-31T10:22:29.182Z,11.5
2023-10-31T10:24:28.756Z,11.7
2023-10-31T10:26:28.413Z,12.1
2023-10-31T10:28:29.427Z,11.8
2023-10-31T10:30:27.820Z,11.4
2023-10-31T10:32:27.609Z,11.4
2023-10-31T10:34:27.394Z,11.4
2023-10-31T10:36:27.464Z,11.3
2023-10-31T10:38:30.988Z,11.1
2023-10-31T10:42:32.859Z,11.3
2023-10-31T10:44:32.841Z,11.5
2023-10-31T10:46:26.027Z,11.7
2023-10-31T10:48:27.329Z,11.8
2023-10-31T10:50:29.990Z,11.7
2023-10-31T10:52:33.019Z,11.6
2023-10-31T10:54:29.775Z,11.5
2023-10-31T10:56:28.566Z,11.5
2023-10-31T10:58:33.904Z,11.4
2023-10-31T11:00:25.566Z,11.6
2023-10-31T11:02:25.424Z,12.1
2023-10-31T11:04:23.427Z,11.9
2023-10-31T11:06:24.316Z,11.8
2023-10-31T11:08:24.747Z,11.5
2023-10-31T11:10:22.892Z,11.6
2023-10-31T11:12:23.711Z,11.6
2023-10-31T11:14:23.962Z,11.6
2023-10-31T11:16:28.988Z,11.7
2023-10-31T11:18:22.287Z,11.8
2023-10-31T11:20:24.013Z,11.7
2023-10-31T11:22:23.193Z,11.7
2023-10-31T11:24:21.183Z,11.8
2023-10-31T11:26:20.956Z,11.6
2023-10-31T11:28:20.771Z,11.9
2023-10-31T11:30:22.090Z,11.9
2023-10-31T11:32:22.395Z,12.2
2023-10-31T11:34:20.259Z,12.2
2023-10-31T11:36:19.749Z,11.9
2023-10-31T11:38:33.088Z,12.1
2023-10-31T11:40:22.065Z,12.0
2023-10-31T11:44:22.457Z,11.8
2023-10-31T11:46:19.625Z,11.6
2023-10-31T11:48:39.395Z,11.5
2023-10-31T11:50:18.575Z,11.5
2023-10-31T11:52:18.553Z,11.7
2023-10-31T11:54:17.921Z,11.7
2023-10-31T11:56:17.886Z,11.3
2023-10-31T11:58:18.964Z,11.4
2023-10-31T12:00:22.103Z,11.6
2023-10-31T12:02:18.253Z,11.4
2023-10-31T12:04:23.994Z,11.5
2023-10-31T12:06:17.406Z,11.3
2023-10-31T12:08:24.750Z,11.1
2023-10-31T12:10:22.752Z,11.1
2023-10-31T12:12:15.709Z,11.2
2023-10-31T12:14:18.774Z,11.4
2023-10-31T12:16:15.460Z,11.2
2023-10-31T12:18:17.735Z,11.1
2023-10-31T12:20:16.218Z,11.1
2023-10-31T12:24:15.784Z,11.3
2023-10-31T12:26:15.361Z,11.4
2023-10-31T12:28:16.917Z,11.1
2023-10-31T12:30:14.950Z,11.1
2023-10-31T12:34:13.476Z,10.9
2023-10-31T12:36:12.872Z,11.0
2023-10-31T12:40:15.027Z,11.0
2023-10-31T12:44:15.108Z,10.9
2023-10-31T12:46:25.413Z,10.8
2023-10-31T12:48:12.151Z,11.0
2023-10-31T12:50:13.953Z,11.0
2023-10-31T12:52:10.588Z,11.1
2023-10-31T12:56:10.218Z,10.9
2023-10-31T12:58:20.307Z,10.9
2023-10-31T13:00:12.624Z,10.9
2023-10-31T13:02:11.025Z,10.8
2023-10-31T13:04:09.789Z,10.8
2023-10-31T13:06:13.979Z,10.7
2023-10-31T13:08:14.170Z,10.6
2023-10-31T13:10:09.869Z,10.8
2023-10-31T13:12:10.751Z,10.8
2023-10-31T13:14:07.968Z,10.7
2023-10-31T13:16:07.849Z,10.8
2023-10-31T13:18:11.245Z,10.9
2023-10-31T13:20:09.239Z,11.0
2023-10-31T13:24:08.376Z,10.9
2023-10-31T13:26:07.168Z,10.9
2023-10-31T13:28:07.466Z,10.8
2023-10-31T13:32:06.317Z,11.0
2023-10-31T13:38:05.118Z,11.0
2023-10-31T13:40:08.426Z,10.9
2023-10-31T13:42:04.640Z,10.9
2023-10-31T13:44:04.664Z,11.0
2023-10-31T13:50:04.695Z,10.9
2023-10-31T13:52:03.723Z,10.9
2023-10-31T13:54:02.854Z,10.9
2023-10-31T13:56:02.826Z,10.8
2023-10-31T13:58:02.351Z,10.9
2023-10-31T14:00:02.451Z,10.8
2023-10-31T14:02:01.950Z,10.9
2023-10-31T14:04:01.823Z,10.7
2023-10-31T14:06:01.697Z,10.7
2023-10-31T14:08:01.170Z,10.7
2023-10-31T14:14:03.261Z,10.7
2023-10-31T14:16:00.624Z,10.8
2023-10-31T14:18:00.190Z,11.1
2023-10-31T14:19:59.504Z,11.4
2023-10-31T14:21:59.078Z,11.5
2023-10-31T14:25:58.606Z,11.6
2023-10-31T14:27:58.427Z,11.8
2023-10-31T14:29:58.239Z,11.9
2023-10-31T14:33:57.948Z,11.6
2023-10-31T14:35:57.432Z,11.6
2023-10-31T14:39:56.878Z,11.5
2023-10-31T14:41:56.520Z,11.3
2023-10-31T14:43:56.245Z,11.3
2023-10-31T14:45:56.854Z,11.3
2023-10-31T14:47:55.756Z,11.5
2023-10-31T14:51:55.254Z,11.4
2023-10-31T14:53:55.125Z,11.5
2023-10-31T14:55:55.425Z,11.5
2023-10-31T14:57:54.515Z,11.6
2023-10-31T14:59:57.181Z,11.8
2023-10-31T15:01:54.213Z,11.2
2023-10-31T15:03:54.349Z,11.4
2023-10-31T15:05:53.800Z,11.4
2023-10-31T15:07:55.077Z,11.7
2023-10-31T15:09:53.006Z,11.1
2023-10-31T15:13:52.625Z,11.3
2023-10-31T15:15:52.270Z,11.7
2023-10-31T15:17:52.075Z,11.2
2023-10-31T15:19:51.827Z,11.3
2023-10-31T15:21:52.157Z,11.3
2023-10-31T15:23:54.236Z,11.1
2023-10-31T15:25:51.065Z,11.1
2023-10-31T15:27:50.941Z,10.9
2023-10-31T15:29:50.579Z,10.7
2023-10-31T15:31:54.367Z,10.8
2023-10-31T15:33:52.029Z,10.8
2023-10-31T15:35:51.743Z,10.7
2023-10-31T15:37:49.680Z,10.8
2023-10-31T15:39:51.255Z,10.8
2023-10-31T15:41:49.110Z,10.8
2023-10-31T15:43:48.878Z,10.8
2023-10-31T15:45:48.513Z,10.8
2023-10-31T15:47:48.447Z,10.9
2023-10-31T15:49:48.325Z,10.8
2023-10-31T15:51:48.882Z,10.8
2023-10-31T15:53:47.636Z,10.7
2023-10-31T15:55:47.298Z,10.6
2023-10-31T15:57:47.174Z,10.5
2023-10-31T15:59:46.911Z,10.6
2023-10-31T16:03:46.477Z,10.3
2023-10-31T16:07:45.755Z,10.2
2023-10-31T16:09:45.396Z,10.2
2023-10-31T16:11:45.460Z,10.1
2023-10-31T16:13:44.852Z,10.1
2023-10-31T16:15:44.730Z,10.1
2023-10-31T16:17:44.523Z,10.1
2023-10-31T16:19:44.308Z,10.2
2023-10-31T16:21:43.737Z,10.2
2023-10-31T16:23:43.631Z,10.3
2023-10-31T16:25:43.318Z,10.4
2023-10-31T16:29:42.707Z,10.4
2023-10-31T16:31:44.295Z,10.4
2023-10-31T16:33:42.562Z,10.4
2023-10-31T16:35:41.867Z,10.4
2023-10-31T16:37:41.545Z,10.5
2023-10-31T16:39:41.896Z,10.5
2023-10-31T16:41:41.179Z,10.5
2023-10-31T16:43:40.897Z,10.5
2023-10-31T16:45:40.529Z,10.5
2023-10-31T16:47:40.403Z,10.5
2023-10-31T16:51:40.205Z,10.5
2023-10-31T16:53:39.553Z,10.4
2023-10-31T16:57:38.879Z,10.2
2023-10-31T16:59:38.725Z,10.4
2023-10-31T17:03:38.391Z,10.4
2023-10-31T17:05:37.995Z,10.3
2023-10-31T17:07:37.508Z,10.1
2023-10-31T17:09:37.759Z,10.2
2023-10-31T17:11:36.903Z,10.3
2023-10-31T17:13:37.468Z,10.4
2023-10-31T17:17:36.318Z,10.3
2023-10-31T17:19:35.756Z,10.2
2023-10-31T17:21:35.860Z,10.5
2023-10-31T17:23:35.290Z,10.7
2023-10-31T17:25:35.073Z,10.3
2023-10-31T17:27:34.714Z,10.3
2023-10-31T17:29:34.604Z,10.4
2023-10-31T17:31:38.258Z,10.4
2023-10-31T17:33:34.142Z,10.5
2023-10-31T17:35:33.678Z,10.5
2023-10-31T17:37:33.290Z,10.6
2023-10-31T17:39:33.009Z,10.6
2023-10-31T17:41:32.797Z,10.7
2023-10-31T17:43:32.694Z,10.8
2023-10-31T17:47:32.056Z,10.7
2023-10-31T17:49:31.770Z,10.8
2023-10-31T17:51:31.550Z,10.8
2023-10-31T17:53:31.286Z,10.8
2023-10-31T17:55:30.866Z,10.9
2023-10-31T17:57:30.708Z,10.9
2023-10-31T17:59:30.495Z,11.0
2023-10-31T18:01:30.280Z,10.9
2023-10-31T18:03:29.937Z,11.0
2023-10-31T18:05:29.750Z,11.1
2023-10-31T18:07:29.480Z,10.9
2023-10-31T18:09:29.239Z,11.0
2023-10-31T18:11:28.862Z,10.9
2023-10-31T18:13:28.613Z,10.9
2023-10-31T18:15:28.444Z,11.0
2023-10-31T18:19:28.162Z,11.1
2023-10-31T18:21:28.877Z,10.9
2023-10-31T18:23:27.380Z,10.9
2023-10-31T18:25:27.139Z,10.9
2023-10-31T18:27:26.822Z,10.9
2023-10-31T18:29:26.796Z,11.1
2023-10-31T18:31:26.579Z,11.0
2023-10-31T18:33:26.084Z,10.9
2023-10-31T18:35:28.612Z,10.9
2023-10-31T18:39:26.510Z,10.8
2023-10-31T18:41:25.008Z,10.9
2023-10-31T18:43:24.753Z,11.1
2023-10-31T18:45:24.452Z,11.0
2023-10-31T18:47:25.512Z,11.1
2023-10-31T18:53:23.379Z,11.0
2023-10-31T18:55:23.325Z,10.8
2023-10-31T18:57:24.323Z,10.8
2023-10-31T18:59:23.106Z,10.7
2023-10-31T19:01:22.479Z,11.0
2023-10-31T19:03:21.986Z,10.8
2023-10-31T19:05:23.508Z,10.9
2023-10-31T19:07:21.519Z,10.7
2023-10-31T19:09:21.682Z,10.7
2023-10-31T19:11:20.882Z,10.6
2023-10-31T19:13:20.865Z,10.6
2023-10-31T19:15:21.086Z,10.9
2023-10-31T19:17:20.169Z,10.7
2023-10-31T19:19:20.348Z,10.6
2023-10-31T19:21:19.724Z,10.6
2023-10-31T19:23:19.346Z,10.6
2023-10-31T19:25:19.229Z,10.5
2023-10-31T19:27:19.105Z,10.5
2023-10-31T19:29:18.473Z,10.4
2023-10-31T19:31:18.241Z,10.4
2023-10-31T19:33:18.600Z,10.5
2023-10-31T19:35:17.733Z,10.5
2023-10-31T19:37:17.420Z,11.0
2023-10-31T19:39:18.805Z,11.1
2023-10-31T19:41:16.981Z,10.6
2023-10-31T19:43:16.843Z,10.6
2023-10-31T19:45:17.043Z,10.6
2023-10-31T19:49:15.906Z,10.7
2023-10-31T19:51:17.231Z,10.6
2023-10-31T19:53:15.523Z,10.6
2023-10-31T19:55:16.372Z,10.6
2023-10-31T19:57:17.080Z,10.6
2023-10-31T19:59:14.696Z,10.6
2023-10-31T20:01:14.807Z,10.6
2023-10-31T20:03:14.015Z,11.0
2023-10-31T20:05:13.834Z,10.8
2023-10-31T20:07:13.635Z,10.8
2023-10-31T20:09:13.178Z,10.8
2023-10-31T20:11:13.212Z,10.8
2023-10-31T20:13:12.790Z,10.9
2023-10-31T20:15:12.677Z,10.7
2023-10-31T20:17:12.057Z,10.8
2023-10-31T20:21:12.307Z,10.7
2023-10-31T20:27:10.651Z,10.9
2023-10-31T20:29:10.480Z,10.8
2023-10-31T20:31:10.828Z,11.0
2023-10-31T20:33:10.120Z,10.8
2023-10-31T20:35:09.707Z,11.1
2023-10-31T20:37:10.068Z,10.9
2023-10-31T20:39:11.136Z,11.0
2023-10-31T20:41:09.405Z,11.3
2023-10-31T20:45:09.617Z,11.0
2023-10-31T20:49:07.733Z,10.9
2023-10-31T20:51:07.538Z,11.0
2023-10-31T20:53:07.413Z,10.9
2023-10-31T20:55:07.433Z,10.9
2023-10-31T20:57:06.920Z,10.9
2023-10-31T20:59:06.625Z,11.1
2023-10-31T21:01:08.653Z,10.9
2023-10-31T21:05:06.300Z,10.9
2023-10-31T21:07:05.611Z,10.9
2023-10-31T21:09:05.159Z,11.0
2023-10-31T21:11:05.383Z,10.9
2023-10-31T21:13:04.645Z,11.0
2023-10-31T21:15:05.351Z,11.1
2023-10-31T21:17:04.269Z,11.0
2023-10-31T21:19:03.820Z,11.0
2023-10-31T21:23:03.372Z,11.1
2023-10-31T21:25:03.670Z,11.0
2023-10-31T21:29:02.834Z,11.2
2023-10-31T21:31:02.526Z,11.5
2023-10-31T21:33:03.321Z,11.2
2023-10-31T21:35:03.662Z,11.1
2023-10-31T21:39:01.156Z,11.1
2023-10-31T21:41:00.951Z,11.1
2023-10-31T21:43:00.801Z,11.0
2023-10-31T21:45:00.653Z,11.0
2023-10-31T21:47:00.256Z,11.0
2023-10-31T21:48:59.912Z,11.0
2023-10-31T21:52:59.377Z,11.2
2023-10-31T21:54:59.189Z,11.1
2023-10-31T21:56:58.899Z,11.1
2023-10-31T21:58:58.630Z,11.1
2023-10-31T22:00:59.014Z,11.1
2023-10-31T22:06:57.812Z,11.0
2023-10-31T22:08:57.804Z,11.1
2023-10-31T22:10:57.097Z,10.9
2023-10-31T22:12:57.000Z,11.0
2023-10-31T22:14:56.642Z,11.0
2023-10-31T22:16:56.367Z,11.0
2023-10-31T22:20:55.954Z,11.1
2023-10-31T22:22:55.663Z,11.1
2023-10-31T22:24:55.338Z,11.1
2023-10-31T22:26:55.089Z,11.1
2023-10-31T22:28:54.830Z,11.4
2023-10-31T22:30:54.639Z,11.5
2023-10-31T22:32:54.356Z,11.1
2023-10-31T22:34:54.212Z,11.0
2023-10-31T22:36:54.942Z,11.0
2023-10-31T22:38:53.627Z,11.1
2023-10-31T22:40:53.267Z,11.3
2023-10-31T22:42:53.089Z,11.4
2023-10-31T22:44:52.907Z,11.1
2023-10-31T22:46:52.500Z,11.1
2023-10-31T22:48:52.261Z,10.9
2023-10-31T22:50:52.366Z,11.0
2023-10-31T22:52:51.979Z,11.1
2023-10-31T22:54:51.568Z,11.0
2023-10-31T22:56:51.315Z,11.1
2023-10-31T22:58:51.361Z,10.9
2023-10-31T23:00:51.263Z,11.4
2023-10-31T23:02:51.164Z,11.1
2023-10-31T23:04:53.194Z,11.4
2023-10-31T23:06:52.825Z,11.1
2023-10-31T23:08:49.780Z,11.3
2023-10-31T23:10:49.503Z,11.0
2023-10-31T23:12:50.711Z,11.3
2023-10-31T23:14:49.059Z,11.1
2023-10-31T23:16:48.665Z,11.0
2023-10-31T23:18:48.472Z,10.9
2023-10-31T23:20:48.355Z,11.1
2023-10-31T23:22:51.184Z,11.2
2023-10-31T23:24:47.809Z,11.0
2023-10-31T23:26:47.468Z,11.0
2023-10-31T23:28:47.143Z,11.0
2023-10-31T23:30:54.718Z,11.1
2023-10-31T23:32:46.986Z,10.9
2023-10-31T23:34:46.296Z,11.1
2023-10-31T23:36:46.002Z,11.2
2023-10-31T23:38:45.793Z,11.0
2023-10-31T23:40:46.252Z,10.9
2023-10-31T23:42:45.269Z,10.9
2023-10-31T23:44:45.036Z,10.9
2023-10-31T23:48:44.440Z,11.1
2023-10-31T23:50:44.177Z,11.0
2023-10-31T23:54:43.650Z,11.0
2023-10-31T23:56:44.244Z,11.0
2023-10-31T23:58:43.283Z,10.9
